^^
Grace C. Lehan Memorial Weather Station Historical Data
Daily Summary for October 02, 2022 Units:  Metric    English   Both
Daily Weekly Monthly Yearly
  High: Low: Average:
Temperature: 14.9 °C 9.9 °C 13 °C
Dew Point: 10.4 °C 1.9 °C 6.5 °C
Humidity: 80% 50.2% 65%
Wind Speed: 12.6km/h 0km/h 3.4km/h
Wind Gust: 37km/h - -
Wind- - ENE
Pressure: 1023.6 hPa 1015.5 hPa -
Precipitation: 0 mm    
 
 
Tabular Data for October 02, 2022
Time Temperature Dew Point Pressure Wind Wind Speed Wind Gust Humidity Rainfall Rate (Hourly) solar
00:04 14.8 °C 7.8 °C 1015.5 hPa Calm     63% 0 mm 0 W/m2
00:09 14.8 °C 7.8 °C 1015.5 hPa Calm   1.6 km/h 63.2% 0 mm 0 W/m2
00:14 14.8 °C 7.9 °C 1015.5 hPa Calm   4.8 km/h 63.5% 0 mm 0 W/m2
00:19 14.7 °C 8 °C 1015.5 hPa NNW 0.5 km/h 14.5 km/h 63.9% 0 mm 0 W/m2
00:24 14.7 °C 8.1 °C 1015.5 hPa East 0.6 km/h 14.5 km/h 64.2% 0 mm 0 W/m2
00:29 14.7 °C 8.2 °C 1015.5 hPa ENE 1.1 km/h 14.5 km/h 64.8% 0 mm 0 W/m2
00:34 14.7 °C 8.2 °C 1015.5 hPa NE 1.4 km/h 14.5 km/h 65% 0 mm 0 W/m2
00:39 14.8 °C 8.3 °C 1015.8 hPa NE 1 km/h 16.1 km/h 65% 0 mm 0 W/m2
00:44 14.8 °C 8.4 °C 1015.8 hPa NNE 1.3 km/h 16.1 km/h 65.5% 0 mm 0 W/m2
00:49 14.8 °C 8.4 °C 1015.5 hPa North 0.6 km/h 16.1 km/h 65.8% 0 mm 0 W/m2
00:54 14.8 °C 8.5 °C 1015.5 hPa NW 0.6 km/h 16.1 km/h 66% 0 mm 0 W/m2
00:59 14.8 °C 8.5 °C 1015.5 hPa NE 2.3 km/h 16.1 km/h 66% 0 mm 0 W/m2
01:04 14.8 °C 8.5 °C 1015.5 hPa NNE 1.6 km/h 16.1 km/h 66% 0 mm 0 W/m2
01:09 14.8 °C 8.5 °C 1015.5 hPa NW 0.3 km/h 16.1 km/h 66% 0 mm 0 W/m2
01:14 14.8 °C 8.7 °C 1015.5 hPa NE 1 km/h 16.1 km/h 66.8% 0 mm 0 W/m2
01:19 14.8 °C 8.8 °C 1015.5 hPa NW 1.1 km/h 16.1 km/h 67% 0 mm 0 W/m2
01:24 14.8 °C 8.7 °C 1015.5 hPa ENE 1.6 km/h 16.1 km/h 66.8% 0 mm 0 W/m2
01:29 14.8 °C 8.8 °C 1015.5 hPa NNE 1.1 km/h 16.1 km/h 67% 0 mm 0 W/m2
01:34 14.8 °C 8.9 °C 1015.5 hPa NE 1.4 km/h 16.1 km/h 67.5% 0 mm 0 W/m2
01:39 14.8 °C 9 °C 1015.8 hPa ENE 0.5 km/h 14.5 km/h 68% 0 mm 0 W/m2
01:44 14.8 °C 9 °C 1016.1 hPa ENE 3.2 km/h 14.5 km/h 68.1% 0 mm 0 W/m2
01:49 14.9 °C 9.1 °C 1016.1 hPa NE 3.7 km/h 20.9 km/h 68.2% 0 mm 0 W/m2
01:54 14.9 °C 9.2 °C 1015.8 hPa NE 1.3 km/h 20.9 km/h 68.8% 0 mm 0 W/m2
01:59 14.9 °C 9.3 °C 1016.1 hPa ENE 1.1 km/h 20.9 km/h 69% 0 mm 0 W/m2
02:04 14.9 °C 9.4 °C 1016.1 hPa ENE 2.3 km/h 20.9 km/h 69.8% 0 mm 0 W/m2
02:09 14.9 °C 9.6 °C 1016.1 hPa ENE 2.4 km/h 14.5 km/h 70% 0 mm 0 W/m2
02:14 14.9 °C 9.6 °C 1016.1 hPa NE 2.6 km/h 14.5 km/h 70% 0 mm 0 W/m2
02:19 14.9 °C 9.6 °C 1016.1 hPa NE 4.5 km/h 20.9 km/h 70% 0 mm 0 W/m2
02:24 14.9 °C 9.5 °C 1016.1 hPa ENE 1.8 km/h 20.9 km/h 70% 0 mm 0 W/m2
02:29 14.9 °C 9.6 °C 1016.1 hPa ENE 3.4 km/h 20.9 km/h 70.3% 0 mm 0 W/m2
02:34 14.9 °C 9.7 °C 1016.1 hPa ENE 2.4 km/h 20.9 km/h 71% 0 mm 0 W/m2
02:39 14.9 °C 9.7 °C 1016.1 hPa NE 3.5 km/h 14.5 km/h 71% 0 mm 0 W/m2
02:44 14.9 °C 9.7 °C 1016.1 hPa ENE 2.6 km/h 14.5 km/h 71% 0 mm 0 W/m2
02:49 14.9 °C 9.7 °C 1016.1 hPa NE 1.8 km/h 14.5 km/h 71% 0 mm 0 W/m2
02:54 14.8 °C 9.8 °C 1016.1 hPa ENE 0.8 km/h 14.5 km/h 71.7% 0 mm 0 W/m2
02:59 14.8 °C 9.8 °C 1016.5 hPa ENE 1.4 km/h 14.5 km/h 72% 0 mm 0 W/m2
03:04 14.8 °C 9.9 °C 1016.5 hPa NE 1 km/h 14.5 km/h 72.2% 0 mm 0 W/m2
03:09 14.8 °C 10 °C 1016.5 hPa NE 1.3 km/h 11.3 km/h 73% 0 mm 0 W/m2
03:14 14.8 °C 10 °C 1016.5 hPa NE 1 km/h 11.3 km/h 73% 0 mm 0 W/m2
03:19 14.8 °C 10 °C 1016.5 hPa NE 0.6 km/h 11.3 km/h 73% 0 mm 0 W/m2
03:24 14.8 °C 10.1 °C 1016.5 hPa North 0.3 km/h 11.3 km/h 73.7% 0 mm 0 W/m2
03:29 14.7 °C 10.2 °C 1016.5 hPa NE 0.6 km/h 11.3 km/h 74% 0 mm 0 W/m2
03:34 14.7 °C 10.3 °C 1016.1 hPa ENE 0.6 km/h 11.3 km/h 74.9% 0 mm 0 W/m2
03:39 14.7 °C 10.3 °C 1016.1 hPa Calm   9.7 km/h 75% 0 mm 0 W/m2
03:44 14.6 °C 10.4 °C 1016.1 hPa SSE 0.6 km/h 9.7 km/h 75.7% 0 mm 0 W/m2
03:49 14.6 °C 10.4 °C 1016.1 hPa NNW 0.2 km/h 9.7 km/h 76% 0 mm 0 W/m2
03:54 14.6 °C 10.3 °C 1016.1 hPa ENE 1.3 km/h 9.7 km/h 76% 0 mm 0 W/m2
03:59 14.5 °C 10.3 °C 1016.1 hPa NE 0.5 km/h 9.7 km/h 76% 0 mm 0 W/m2
04:00 14.5 °C 10.3 °C 1016.1 hPa Calm   9.7 km/h 76% 0 mm 0 W/m2
04:09 14.4 °C 10.3 °C 1016.1 hPa ENE 0.6 km/h 11.3 km/h 76.2% 0 mm 0 W/m2
04:14 14.4 °C 10.3 °C 1016.1 hPa NE 2.3 km/h 16.1 km/h 76.2% 0 mm 0 W/m2
04:19 14.3 °C 10.3 °C 1016.1 hPa North 1.6 km/h 24.1 km/h 76.4% 0 mm 0 W/m2
04:24 14.3 °C 10.2 °C 1015.8 hPa ENE 1.6 km/h 24.1 km/h 76.3% 0 mm 0 W/m2
04:29 14.3 °C 10.2 °C 1016.1 hPa NNE 2.4 km/h 24.1 km/h 76.3% 0 mm 0 W/m2
04:34 14.3 °C 10.2 °C 1016.1 hPa NE 1 km/h 24.1 km/h 76.2% 0 mm 0 W/m2
04:39 14.3 °C 10.2 °C 1016.1 hPa North 1.8 km/h 11.3 km/h 76.4% 0 mm 0 W/m2
04:44 14.3 °C 10.2 °C 1016.1 hPa ENE 1.1 km/h 11.3 km/h 76.2% 0 mm 0 W/m2
04:49 14.3 °C 10.1 °C 1016.1 hPa NE 2.1 km/h 11.3 km/h 76% 0 mm 0 W/m2
04:54 14.3 °C 10.2 °C 1016.1 hPa NNE 2.3 km/h 19.3 km/h 76.3% 0 mm 0 W/m2
04:59 14.3 °C 10.1 °C 1016.1 hPa NE 1.1 km/h 19.3 km/h 76% 0 mm 0 W/m2
05:04 14.3 °C 10.3 °C 1016.1 hPa North 1.8 km/h 19.3 km/h 76.8% 0 mm 0 W/m2
05:09 14.2 °C 10.3 °C 1016.1 hPa NNE 1.1 km/h 17.7 km/h 77% 0 mm 0 W/m2
05:14 14.2 °C 10.2 °C 1016.1 hPa NE 0.6 km/h 17.7 km/h 77% 0 mm 0 W/m2
05:19 14.2 °C 10.2 °C 1016.1 hPa NE 1.4 km/h 17.7 km/h 77% 0 mm 0 W/m2
05:24 14.2 °C 10.2 °C 1016.5 hPa NNE 1.8 km/h 17.7 km/h 77% 0 mm 0 W/m2
05:29 14.2 °C 10.2 °C 1016.5 hPa NNW 1.6 km/h 20.9 km/h 77% 0 mm 0 W/m2
05:34 14.1 °C 10.2 °C 1016.5 hPa NNE 0.8 km/h 20.9 km/h 77% 0 mm 0 W/m2
05:39 14.1 °C 10.2 °C 1016.5 hPa NNE 1.6 km/h 11.3 km/h 77% 0 mm 0 W/m2
05:44 14.1 °C 10.1 °C 1016.5 hPa NNE 1.4 km/h 11.3 km/h 77% 0 mm 0 W/m2
05:49 14.1 °C 10.1 °C 1016.5 hPa North 0.8 km/h 11.3 km/h 77.2% 0 mm 0 W/m2
05:54 14 °C 10 °C 1016.5 hPa ENE 2.6 km/h 17.7 km/h 77% 0 mm 0 W/m2
05:59 13.9 °C 10.1 °C 1016.5 hPa NNE 1.3 km/h 17.7 km/h 77.5% 0 mm 0 W/m2
06:04 13.9 °C 10.2 °C 1016.8 hPa NE 2.1 km/h 17.7 km/h 78% 0 mm 0 W/m2
06:09 13.9 °C 10.1 °C 1016.8 hPa ENE 1.8 km/h 16.1 km/h 78% 0 mm 0 W/m2
06:14 13.8 °C 10.1 °C 1017.2 hPa ENE 1.8 km/h 16.1 km/h 78% 0 mm 0 W/m2
06:19 13.8 °C 10.1 °C 1017.2 hPa NNE 0.8 km/h 16.1 km/h 78.1% 0 mm 0 W/m2
06:24 13.7 °C 10.1 °C 1017.2 hPa North 0.5 km/h 16.1 km/h 78.6% 0 mm 0 W/m2
06:29 13.7 °C 10.2 °C 1017.2 hPa NNE 1 km/h 16.1 km/h 79% 0 mm 0 W/m2
06:34 13.7 °C 10.1 °C 1017.5 hPa NE 1.3 km/h 16.1 km/h 79% 0 mm 0 W/m2
06:39 13.6 °C 10.1 °C 1017.5 hPa ENE 2.6 km/h 16.1 km/h 79% 0 mm 0 W/m2
06:44 13.6 °C 10.1 °C 1017.5 hPa ENE 1.9 km/h 16.1 km/h 79.7% 0 mm 0 W/m2
06:49 13.6 °C 10.2 °C 1017.5 hPa ENE 0.6 km/h 16.1 km/h 80% 0 mm 0 W/m2
06:54 13.5 °C 10.1 °C 1017.5 hPa NE 1.6 km/h 16.1 km/h 80% 0 mm 0 W/m2
06:59 13.5 °C 10.1 °C 1017.5 hPa NE 1.3 km/h 16.1 km/h 80% 0 mm 0 W/m2
07:04 13.5 °C 10.1 °C 1017.8 hPa East 2.4 km/h 16.1 km/h 80% 0 mm 0 W/m2
07:09 13.5 °C 10.1 °C 1017.8 hPa ENE 2.1 km/h 11.3 km/h 80% 0 mm 5 W/m2
07:14 13.5 °C 10.1 °C 1017.5 hPa ENE 3.2 km/h 16.1 km/h 80% 0 mm 7 W/m2
07:19 13.6 °C 10.2 °C 1017.5 hPa ENE 1.3 km/h 16.1 km/h 80% 0 mm 12 W/m2
07:24 13.6 °C 10.2 °C 1017.5 hPa ENE 2.4 km/h 16.1 km/h 80% 0 mm 11 W/m2
07:29 13.6 °C 10.2 °C 1017.5 hPa ENE 1.8 km/h 16.1 km/h 80% 0 mm 9 W/m2
07:34 13.6 °C 10.2 °C 1017.8 hPa ENE 2.7 km/h 16.1 km/h 79.9% 0 mm 7 W/m2
07:39 13.6 °C 10.1 °C 1017.8 hPa ENE 2.7 km/h 14.5 km/h 79.2% 0 mm 9 W/m2
07:44 13.6 °C 10.1 °C 1017.8 hPa NE 4.7 km/h 19.3 km/h 79% 0 mm 7 W/m2
07:49 13.6 °C 10.1 °C 1018.2 hPa NE 6.9 km/h 19.3 km/h 79% 0 mm 7 W/m2
07:54 13.6 °C 10.1 °C 1018.2 hPa ENE 1.3 km/h 19.3 km/h 79% 0 mm 16 W/m2
07:59 13.6 °C 10 °C 1018.2 hPa ENE 3.7 km/h 19.3 km/h 79% 0 mm 16 W/m2
08:09 13.6 °C 9.9 °C 1018.2 hPa ENE 3.9 km/h 19.3 km/h 78.8% 0 mm 30 W/m2
08:14 13.6 °C 9.8 °C 1018.5 hPa ENE 4.5 km/h 19.3 km/h 78.1% 0 mm 44 W/m2
08:19 13.6 °C 9.8 °C 1018.5 hPa East 2.4 km/h 19.3 km/h 78% 0 mm 42 W/m2
08:24 13.6 °C 9.8 °C 1018.5 hPa NE 3.5 km/h 19.3 km/h 78% 0 mm 40 W/m2
08:29 13.6 °C 9.8 °C 1018.8 hPa ENE 2.1 km/h 19.3 km/h 78% 0 mm 44 W/m2
08:34 13.6 °C 9.8 °C 1018.8 hPa ENE 3.1 km/h 19.3 km/h 78% 0 mm 63 W/m2
08:39 13.6 °C 9.8 °C 1018.8 hPa NE 5 km/h 17.7 km/h 78% 0 mm 72 W/m2
08:44 13.6 °C 9.8 °C 1018.8 hPa NE 6.3 km/h 20.9 km/h 77.9% 0 mm 65 W/m2
08:49 13.6 °C 9.6 °C 1018.8 hPa NE 3.1 km/h 20.9 km/h 77.1% 0 mm 70 W/m2
08:54 13.6 °C 9.6 °C 1018.5 hPa ENE 3.4 km/h 20.9 km/h 77.1% 0 mm 62 W/m2
08:59 13.6 °C 9.7 °C 1018.8 hPa NE 5.5 km/h 25.7 km/h 77.2% 0 mm 49 W/m2
09:04 13.5 °C 9.6 °C 1018.8 hPa NE 1.3 km/h 25.7 km/h 77% 0 mm 54 W/m2
09:09 13.5 °C 9.6 °C 1018.8 hPa ENE 4.3 km/h 17.7 km/h 77% 0 mm 69 W/m2
09:14 13.4 °C 9.6 °C 1019.2 hPa ENE 6.3 km/h 19.3 km/h 77.2% 0 mm 70 W/m2
09:19 13.4 °C 9.5 °C 1019.2 hPa NE 4.2 km/h 19.3 km/h 77% 0 mm 84 W/m2
09:24 13.4 °C 9.5 °C 1019.2 hPa NE 2.9 km/h 19.3 km/h 77% 0 mm 104 W/m2
09:29 13.4 °C 9.5 °C 1019.2 hPa NE 2.3 km/h 19.3 km/h 77.1% 0 mm 107 W/m2
09:34 13.4 °C 9.6 °C 1019.5 hPa NE 2.9 km/h 25.7 km/h 77.3% 0 mm 104 W/m2
09:39 13.5 °C 9.6 °C 1019.5 hPa ENE 4.8 km/h 25.7 km/h 77% 0 mm 91 W/m2
09:44 13.5 °C 9.6 °C 1019.5 hPa ENE 1.8 km/h 25.7 km/h 77% 0 mm 114 W/m2
09:49 13.5 °C 9.4 °C 1019.5 hPa NE 4.8 km/h 25.7 km/h 76.3% 0 mm 120 W/m2
09:54 13.5 °C 9.4 °C 1019.5 hPa NE 4.2 km/h 25.7 km/h 76.4% 0 mm 114 W/m2
09:59 13.5 °C 9.3 °C 1019.5 hPa NE 5.8 km/h 25.7 km/h 76% 0 mm 107 W/m2
10:04 13.4 °C 9.4 °C 1019.5 hPa ENE 2.1 km/h 25.7 km/h 76.3% 0 mm 114 W/m2
10:09 13.4 °C 9.3 °C 1019.5 hPa ENE 2.4 km/h 20.9 km/h 76.2% 0 mm 116 W/m2
10:14 13.3 °C 9.3 °C 1019.9 hPa ENE 5.3 km/h 20.9 km/h 76.7% 0 mm 155 W/m2
10:19 13.3 °C 9.3 °C 1019.9 hPa ENE 3.7 km/h 20.9 km/h 76.8% 0 mm 192 W/m2
10:24 13.3 °C 9.3 °C 1019.9 hPa North 3.7 km/h 20.9 km/h 76.9% 0 mm 181 W/m2
10:29 13.3 °C 9.2 °C 1019.9 hPa ENE 3.9 km/h 20.9 km/h 76% 0 mm 158 W/m2
10:34 13.4 °C 9.2 °C 1019.9 hPa NE 3.9 km/h 20.9 km/h 76% 0 mm 183 W/m2
10:39 13.4 °C 9.2 °C 1019.9 hPa ENE 3.4 km/h 19.3 km/h 75.6% 0 mm 156 W/m2
10:44 13.4 °C 9.2 °C 1020.2 hPa NE 2.3 km/h 19.3 km/h 75.3% 0 mm 123 W/m2
10:49 13.4 °C 9.1 °C 1020.2 hPa ENE 8.5 km/h 27.4 km/h 74.8% 0 mm 151 W/m2
10:54 13.3 °C 8.7 °C 1020.2 hPa ENE 7.7 km/h 29 km/h 73.7% 0 mm 141 W/m2
10:59 13.2 °C 8.6 °C 1019.9 hPa NE 7.9 km/h 29 km/h 73.8% 0 mm 148 W/m2
11:04 13.2 °C 8.5 °C 1019.9 hPa ENE 10.6 km/h 29 km/h 73.4% 0 mm 148 W/m2
11:09 13.1 °C 8.4 °C 1019.9 hPa NE 7.6 km/h 29 km/h 73% 0 mm 151 W/m2
11:14 13.1 °C 8.2 °C 1019.9 hPa ENE 6.9 km/h 29 km/h 72.3% 0 mm 195 W/m2
11:19 13.2 °C 8.3 °C 1019.9 hPa ENE 8.5 km/h 29 km/h 72.6% 0 mm 241 W/m2
11:24 13.2 °C 8.2 °C 1019.9 hPa ENE 5.5 km/h 29 km/h 71.4% 0 mm 241 W/m2
11:29 13.3 °C 8.3 °C 1020.2 hPa ENE 5.8 km/h 29 km/h 71.3% 0 mm 271 W/m2
11:34 13.4 °C 8.1 °C 1020.2 hPa ENE 7.1 km/h 29 km/h 70% 0 mm 297 W/m2
11:39 13.6 °C 7.7 °C 1020.2 hPa ENE 9.3 km/h 32.2 km/h 67.9% 0 mm 278 W/m2
11:44 13.6 °C 7.7 °C 1020.2 hPa NE 6.8 km/h 32.2 km/h 67.9% 0 mm 237 W/m2
11:49 13.6 °C 7.7 °C 1019.9 hPa ENE 7.7 km/h 32.2 km/h 67.5% 0 mm 206 W/m2
11:54 13.6 °C 7.4 °C 1020.2 hPa ENE 12.6 km/h 32.2 km/h 66.1% 0 mm 221 W/m2
11:59 13.5 °C 7.2 °C 1020.2 hPa ENE 6 km/h 32.2 km/h 65.5% 0 mm 220 W/m2
12:00 13.5 °C 7.3 °C 1019.9 hPa ENE 3.2 km/h 32.2 km/h 66% 0 mm 197 W/m2
12:09 13.4 °C 6.9 °C 1020.5 hPa ENE 3.4 km/h 33.8 km/h 64.8% 0 mm 169 W/m2
12:14 13.4 °C 6.8 °C 1020.5 hPa ENE 4.5 km/h 33.8 km/h 64.2% 0 mm 197 W/m2
12:19 13.4 °C 6.7 °C 1020.5 hPa ENE 6.8 km/h 33.8 km/h 63.7% 0 mm 214 W/m2
12:24 13.3 °C 6.4 °C 1020.9 hPa East 3.5 km/h 33.8 km/h 63% 0 mm 220 W/m2
12:29 13.4 °C 6.7 °C 1020.9 hPa ENE 2.3 km/h 33.8 km/h 63.6% 0 mm 221 W/m2
12:34 13.5 °C 6.5 °C 1020.9 hPa NE 3.9 km/h 33.8 km/h 62.5% 0 mm 264 W/m2
12:39 13.6 °C 6 °C 1020.9 hPa ENE 10 km/h 29 km/h 60.2% 0 mm 316 W/m2
12:44 13.6 °C 5.6 °C 1020.9 hPa ENE 10 km/h 37 km/h 58.3% 0 mm 320 W/m2
12:49 13.6 °C 5.3 °C 1020.9 hPa ENE 8.5 km/h 37 km/h 57.2% 0 mm 301 W/m2
12:54 13.7 °C 5.1 °C 1020.9 hPa ENE 8.9 km/h 37 km/h 56.2% 0 mm 332 W/m2
12:59 13.8 °C 5.2 °C 1020.9 hPa ENE 6.3 km/h 37 km/h 56.2% 0 mm 325 W/m2
13:04 13.8 °C 4.9 °C 1020.9 hPa ENE 10.9 km/h 37 km/h 55.2% 0 mm 299 W/m2
13:09 13.8 °C 4.9 °C 1020.9 hPa ENE 9.3 km/h 32.2 km/h 55.2% 0 mm 290 W/m2
13:14 13.7 °C 4.8 °C 1020.5 hPa ENE 9.7 km/h 32.2 km/h 54.8% 0 mm 271 W/m2
13:19 13.7 °C 5.2 °C 1020.5 hPa ENE 4.8 km/h 32.2 km/h 56.6% 0 mm 274 W/m2
13:24 13.7 °C 5.1 °C 1020.5 hPa ENE 6 km/h 32.2 km/h 55.9% 0 mm 318 W/m2
13:29 13.8 °C 5.2 °C 1020.5 hPa NE 8.2 km/h 32.2 km/h 55.8% 0 mm 330 W/m2
13:34 13.9 °C 5.1 °C 1020.5 hPa ENE 6.4 km/h 32.2 km/h 55.5% 0 mm 315 W/m2
13:39 13.9 °C 5.1 °C 1020.5 hPa NE 3.2 km/h 25.7 km/h 55.5% 0 mm 288 W/m2
13:44 13.9 °C 5.3 °C 1020.5 hPa NE 4.5 km/h 25.7 km/h 55.9% 0 mm 295 W/m2
13:49 13.9 °C 5 °C 1020.5 hPa NE 8.2 km/h 27.4 km/h 54.8% 0 mm 290 W/m2
13:54 13.8 °C 4.7 °C 1020.5 hPa ENE 5 km/h 27.4 km/h 54.1% 0 mm 251 W/m2
13:59 13.8 °C 5.1 °C 1020.5 hPa ENE 5.6 km/h 27.4 km/h 55.8% 0 mm 311 W/m2
14:04 13.8 °C 4.9 °C 1020.5 hPa ENE 10 km/h 27.4 km/h 55.1% 0 mm 336 W/m2
14:09 13.8 °C 4.6 °C 1020.5 hPa NE 6.9 km/h 27.4 km/h 54% 0 mm 323 W/m2
14:14 13.7 °C 4.6 °C 1020.5 hPa ENE 7.6 km/h 29 km/h 54% 0 mm 285 W/m2
14:19 13.6 °C 4.7 °C 1020.9 hPa NE 6.4 km/h 29 km/h 54.7% 0 mm 237 W/m2
14:24 13.6 °C 4.6 °C 1020.9 hPa ENE 5.1 km/h 29 km/h 54.5% 0 mm 218 W/m2
14:29 13.4 °C 4.4 °C 1020.9 hPa ENE 6.4 km/h 29 km/h 54.3% 0 mm 185 W/m2
14:34 13.3 °C 4.4 °C 1020.5 hPa NE 7.6 km/h 30.6 km/h 54.8% 0 mm 165 W/m2
14:39 13.1 °C 3.8 °C 1020.9 hPa ENE 10.9 km/h 30.6 km/h 53% 0 mm 176 W/m2
14:44 13 °C 3.9 °C 1020.9 hPa ENE 6.9 km/h 30.6 km/h 53.9% 0 mm 188 W/m2
14:49 12.9 °C 3.8 °C 1020.9 hPa ENE 6.9 km/h 30.6 km/h 53.9% 0 mm 204 W/m2
14:54 12.9 °C 4 °C 1020.9 hPa ENE 4.5 km/h 30.6 km/h 54.5% 0 mm 197 W/m2
14:59 12.9 °C 3.9 °C 1020.9 hPa NE 7.7 km/h 30.6 km/h 54.2% 0 mm 167 W/m2
15:04 12.9 °C 4.2 °C 1020.9 hPa NE 3.1 km/h 30.6 km/h 55.1% 0 mm 134 W/m2
15:09 12.9 °C 4.1 °C 1020.9 hPa ENE 3.7 km/h 17.7 km/h 54.8% 0 mm 137 W/m2
15:14 12.9 °C 3.9 °C 1020.9 hPa ENE 4.5 km/h 17.7 km/h 54.6% 0 mm 139 W/m2
15:19 12.8 °C 3.9 °C 1020.9 hPa ENE 4.7 km/h 19.3 km/h 54.7% 0 mm 146 W/m2
15:24 12.8 °C 4.2 °C 1020.9 hPa ENE 5.1 km/h 20.9 km/h 55.7% 0 mm 146 W/m2
15:29 12.8 °C 3.9 °C 1020.9 hPa NE 6 km/h 24.1 km/h 54.8% 0 mm 146 W/m2
15:34 12.7 °C 4.1 °C 1020.5 hPa NE 6.4 km/h 24.1 km/h 55.6% 0 mm 146 W/m2
15:39 12.7 °C 4.1 °C 1020.9 hPa ENE 2.9 km/h 20.9 km/h 55.6% 0 mm 172 W/m2
15:44 12.8 °C 4.2 °C 1020.9 hPa ENE 4 km/h 20.9 km/h 56% 0 mm 185 W/m2
15:49 12.8 °C 3.9 °C 1020.9 hPa ENE 5.3 km/h 20.9 km/h 54.5% 0 mm 181 W/m2
15:54 12.8 °C 3.8 °C 1020.9 hPa ENE 5.8 km/h 24.1 km/h 54% 0 mm 165 W/m2
15:59 12.8 °C 3.5 °C 1020.9 hPa ENE 5 km/h 24.1 km/h 53% 0 mm 158 W/m2
16:09 12.8 °C 3.5 °C 1021.2 hPa NE 2.9 km/h 12.9 km/h 53% 0 mm 135 W/m2
16:14 12.8 °C 3.4 °C 1021.2 hPa NE 5.1 km/h 20.9 km/h 53% 0 mm 121 W/m2
16:19 12.8 °C 3.4 °C 1021.2 hPa ENE 4.2 km/h 20.9 km/h 53% 0 mm 111 W/m2
16:24 12.7 °C 3.7 °C 1021.2 hPa NE 1.9 km/h 20.9 km/h 54.1% 0 mm 104 W/m2
16:29 12.7 °C 3.8 °C 1021.2 hPa ENE 2.7 km/h 20.9 km/h 54.5% 0 mm 90 W/m2
16:34 12.7 °C 3.6 °C 1021.2 hPa ENE 5.6 km/h 27.4 km/h 53.9% 0 mm 114 W/m2
16:39 12.7 °C 3.3 °C 1021.6 hPa ENE 3.1 km/h 27.4 km/h 52.8% 0 mm 114 W/m2
16:44 12.7 °C 3.2 °C 1021.6 hPa ENE 8.7 km/h 27.4 km/h 52.4% 0 mm 97 W/m2
16:49 12.6 °C 2.8 °C 1021.6 hPa NE 7.9 km/h 27.4 km/h 51.2% 0 mm 81 W/m2
16:54 12.6 °C 2.4 °C 1021.6 hPa ENE 7.9 km/h 27.4 km/h 50.2% 0 mm 79 W/m2
16:59 12.5 °C 2.5 °C 1021.6 hPa ENE 4.7 km/h 27.4 km/h 50.5% 0 mm 67 W/m2
17:04 12.4 °C 2.7 °C 1021.6 hPa ENE 4.5 km/h 27.4 km/h 51.7% 0 mm 58 W/m2
17:09 12.3 °C 2.5 °C 1021.6 hPa ENE 8.9 km/h 22.5 km/h 51% 0 mm 51 W/m2
17:14 12.3 °C 2.3 °C 1021.6 hPa ENE 7.2 km/h 29 km/h 50.6% 0 mm 53 W/m2
17:19 12.2 °C 2.4 °C 1021.6 hPa ENE 6.4 km/h 29 km/h 51.1% 0 mm 54 W/m2
17:24 12.2 °C 2.4 °C 1021.6 hPa ENE 5.8 km/h 29 km/h 51.2% 0 mm 42 W/m2
17:29 12.1 °C 2.5 °C 1021.9 hPa NE 3.5 km/h 29 km/h 51.9% 0 mm 37 W/m2
17:34 12.1 °C 2.9 °C 1021.9 hPa NE 0.8 km/h 29 km/h 53.5% 0 mm 42 W/m2
17:39 12.1 °C 2.8 °C 1022.2 hPa NE 2.6 km/h 16.1 km/h 53.2% 0 mm 42 W/m2
17:44 12 °C 2.2 °C 1022.2 hPa ENE 4.7 km/h 19.3 km/h 51.2% 0 mm 33 W/m2
17:49 11.9 °C 2.3 °C 1022.2 hPa ENE 2.1 km/h 19.3 km/h 51.4% 0 mm 23 W/m2
17:54 11.9 °C 2.4 °C 1021.9 hPa East 1.8 km/h 19.3 km/h 52.2% 0 mm 23 W/m2
17:59 11.8 °C 2.4 °C 1022.2 hPa ESE 1 km/h 19.3 km/h 52.5% 0 mm 25 W/m2
18:04 11.8 °C 2.2 °C 1022.2 hPa ENE 3.5 km/h 19.3 km/h 52% 0 mm 19 W/m2
18:09 11.7 °C 2.4 °C 1022.2 hPa ENE 0.8 km/h 11.3 km/h 52.9% 0 mm 12 W/m2
18:14 11.6 °C 2.4 °C 1022.2 hPa NE 2.3 km/h 19.3 km/h 53% 0 mm 9 W/m2
18:19 11.6 °C 2.3 °C 1022.2 hPa NE 3.9 km/h 19.3 km/h 52.8% 0 mm 5 W/m2
18:24 11.5 °C 2.3 °C 1022.2 hPa ENE 2.1 km/h 19.3 km/h 53.1% 0 mm 0 W/m2
18:29 11.4 °C 2.2 °C 1022.6 hPa NE 6.1 km/h 19.3 km/h 53% 0 mm 0 W/m2
18:34 11.3 °C 2.1 °C 1022.6 hPa NE 5.3 km/h 22.5 km/h 53% 0 mm 0 W/m2
18:39 11.3 °C 2.2 °C 1022.6 hPa NE 4 km/h 22.5 km/h 53.4% 0 mm 0 W/m2
18:44 11.3 °C 2.2 °C 1022.2 hPa ENE 2.6 km/h 22.5 km/h 53.5% 0 mm 0 W/m2
18:49 11.2 °C 2.1 °C 1022.2 hPa ENE 1.8 km/h 22.5 km/h 53.4% 0 mm 0 W/m2
18:54 11.2 °C 2.2 °C 1022.2 hPa ENE 3.2 km/h 24.1 km/h 54% 0 mm 0 W/m2
18:59 11.1 °C 2.2 °C 1022.2 hPa ENE 2.9 km/h 24.1 km/h 54% 0 mm 0 W/m2
19:04 11.1 °C 2.1 °C 1022.2 hPa East 3.1 km/h 24.1 km/h 54% 0 mm 0 W/m2
19:09 11 °C 2.1 °C 1022.2 hPa ENE 1.6 km/h 22.5 km/h 54.2% 0 mm 0 W/m2
19:14 11 °C 2.1 °C 1022.2 hPa ENE 1.9 km/h 22.5 km/h 54% 0 mm 0 W/m2
19:19 10.9 °C 2 °C 1022.2 hPa ENE 3.5 km/h 22.5 km/h 54% 0 mm 0 W/m2
19:24 10.9 °C 2.1 °C 1022.6 hPa ENE 2.3 km/h 22.5 km/h 54.5% 0 mm 0 W/m2
19:29 10.9 °C 2.1 °C 1022.6 hPa ENE 2.9 km/h 22.5 km/h 54.7% 0 mm 0 W/m2
19:34 10.8 °C 1.9 °C 1022.6 hPa ENE 5.5 km/h 22.5 km/h 54.2% 0 mm 0 W/m2
19:39 10.8 °C 1.9 °C 1022.6 hPa ENE 5.6 km/h 20.9 km/h 54% 0 mm 0 W/m2
19:44 10.8 °C 2.1 °C 1022.6 hPa ENE 4.2 km/h 20.9 km/h 54.5% 0 mm 0 W/m2
19:49 10.8 °C 1.9 °C 1022.9 hPa ENE 4.7 km/h 20.9 km/h 54% 0 mm 0 W/m2
19:54 10.8 °C 2 °C 1022.9 hPa ENE 5.3 km/h 20.9 km/h 54.3% 0 mm 0 W/m2
19:59 10.8 °C 2 °C 1022.9 hPa ENE 5.5 km/h 20.9 km/h 54.7% 0 mm 0 W/m2
20:00 10.8 °C 2.1 °C 1022.6 hPa NE 6.4 km/h 20.9 km/h 55% 0 mm 0 W/m2
20:09 10.7 °C 2.1 °C 1022.6 hPa ENE 2.9 km/h 16.1 km/h 55.2% 0 mm 0 W/m2
20:14 10.7 °C 2.1 °C 1022.6 hPa NE 2.4 km/h 16.1 km/h 55.1% 0 mm 0 W/m2
20:19 10.7 °C 2.1 °C 1022.9 hPa NE 5 km/h 19.3 km/h 55.3% 0 mm 0 W/m2
20:24 10.6 °C 2.1 °C 1022.9 hPa ENE 1.8 km/h 19.3 km/h 55.5% 0 mm 0 W/m2
20:29 10.6 °C 2.2 °C 1022.9 hPa NE 1.6 km/h 19.3 km/h 56% 0 mm 0 W/m2
20:34 10.6 °C 2.2 °C 1023.2 hPa ENE 2.3 km/h 19.3 km/h 56% 0 mm 0 W/m2
20:39 10.6 °C 2.3 °C 1023.2 hPa NE 2.4 km/h 14.5 km/h 56.8% 0 mm 0 W/m2
20:44 10.5 °C 2.4 °C 1023.2 hPa ENE 1.6 km/h 14.5 km/h 57.3% 0 mm 0 W/m2
20:49 10.4 °C 2.3 °C 1023.6 hPa ENE 1.3 km/h 17.7 km/h 57.1% 0 mm 0 W/m2
20:54 10.4 °C 2.5 °C 1023.6 hPa ENE 1.6 km/h 17.7 km/h 57.7% 0 mm 0 W/m2
20:59 10.4 °C 2.4 °C 1023.2 hPa NE 2.1 km/h 17.7 km/h 57.7% 0 mm 0 W/m2
21:04 10.4 °C 2.5 °C 1023.2 hPa ENE 1.9 km/h 17.7 km/h 58% 0 mm 0 W/m2
21:09 10.3 °C 2.4 °C 1023.2 hPa ENE 1.4 km/h 9.7 km/h 58% 0 mm 0 W/m2
21:14 10.3 °C 2.4 °C 1022.9 hPa ENE 2.7 km/h 16.1 km/h 58.1% 0 mm 0 W/m2
21:19 10.3 °C 2.4 °C 1023.2 hPa ENE 1.8 km/h 16.1 km/h 58.1% 0 mm 0 W/m2
21:24 10.3 °C 2.8 °C 1023.2 hPa ENE 0.6 km/h 16.1 km/h 59.6% 0 mm 0 W/m2
21:29 10.3 °C 2.7 °C 1023.2 hPa ENE 5.5 km/h 17.7 km/h 59.2% 0 mm 0 W/m2
21:34 10.3 °C 2.6 °C 1023.2 hPa NE 2.7 km/h 17.7 km/h 59% 0 mm 0 W/m2
21:39 10.2 °C 2.7 °C 1023.2 hPa NNE 1.4 km/h 16.1 km/h 59.3% 0 mm 0 W/m2
21:44 10.2 °C 2.8 °C 1023.2 hPa Calm   16.1 km/h 60% 0 mm 0 W/m2
21:49 10.2 °C 2.8 °C 1023.2 hPa Calm   16.1 km/h 60.1% 0 mm 0 W/m2
21:54 10.2 °C 2.8 °C 1023.2 hPa ENE 0.3 km/h 16.1 km/h 60.2% 0 mm 0 W/m2
21:59 10.1 °C 2.9 °C 1023.2 hPa ENE 0.8 km/h 16.1 km/h 60.7% 0 mm 0 W/m2
22:04 10.1 °C 3 °C 1023.2 hPa Calm   16.1 km/h 61.4% 0 mm 0 W/m2
22:09 10.1 °C 3.1 °C 1023.2 hPa NNW 0.5 km/h 8 km/h 61.7% 0 mm 0 W/m2
22:14 10.1 °C 3.1 °C 1023.2 hPa NW 0.2 km/h 8 km/h 61.8% 0 mm 0 W/m2
22:19 10.1 °C 3.1 °C 1023.2 hPa NNW 0.8 km/h 12.9 km/h 62.1% 0 mm 0 W/m2
22:24 10 °C 3.1 °C 1023.2 hPa North 0.8 km/h 12.9 km/h 62% 0 mm 0 W/m2
22:29 10 °C 3.1 °C 1023.2 hPa NW 0.8 km/h 12.9 km/h 62% 0 mm 0 W/m2
22:34 9.9 °C 3.1 °C 1023.6 hPa North 0.6 km/h 19.3 km/h 62.2% 0 mm 0 W/m2
22:39 9.9 °C 3.2 °C 1023.6 hPa North 0.8 km/h 19.3 km/h 62.7% 0 mm 0 W/m2
22:44 9.9 °C 3.2 °C 1023.2 hPa NE 0.6 km/h 19.3 km/h 62.8% 0 mm 0 W/m2
22:49 9.9 °C 3 °C 1023.2 hPa NE 1.8 km/h 19.3 km/h 62% 0 mm 0 W/m2
22:54 9.9 °C 3 °C 1022.9 hPa NE 0.6 km/h 19.3 km/h 62% 0 mm 0 W/m2
22:59 9.9 °C 3 °C 1022.9 hPa ENE 0.8 km/h 19.3 km/h 61.8% 0 mm 0 W/m2
23:04 10 °C 3.1 °C 1022.9 hPa NE 0.5 km/h 19.3 km/h 62% 0 mm 0 W/m2
23:09 10 °C 3.1 °C 1023.2 hPa North 0.3 km/h 6.4 km/h 62% 0 mm 0 W/m2
23:14 10 °C 3.1 °C 1023.2 hPa NE 0.5 km/h 6.4 km/h 62% 0 mm 0 W/m2
23:19 10.1 °C 3.1 °C 1023.2 hPa NE 1.4 km/h 16.1 km/h 62% 0 mm 0 W/m2
23:24 10.1 °C 3.1 °C 1023.2 hPa NNE 0.2 km/h 16.1 km/h 62% 0 mm 0 W/m2
23:28 10.1 °C 3.2 °C 1023.2 hPa ENE 1.3 km/h 16.1 km/h 62.3% 0 mm 0 W/m2
Hartford County Weather
Compliments of Weather Underground - 4 mb